Time,TemperatureF,DewpointF,PressureIn,WindDirection,WindDirectionDegrees,WindSpeedMPH,WindSpeedGustMPH,Humidity,HourlyPrecipIn,Conditions,Clouds,dailyrainin,SoftwareType,DateUTC
2013-09-12 00:06:00,72.1,71.0,30.03,NE,50,0.0,0.0,95,0.00,,,0.00,weatherlink.com 1.10,2013-09-12 05:06:00,
2013-09-12 00:21:00,72.0,71.0,30.02,NE,56,0.0,1.0,95,0.00,,,0.00,weatherlink.com 1.10,2013-09-12 05:21:00,
2013-09-12 00:36:00,71.7,70.0,30.02,NE,56,0.0,0.0,95,0.00,,,0.00,weatherlink.com 1.10,2013-09-12 05:36:00,
2013-09-12 00:51:00,72.4,71.0,30.02,ENE,60,1.0,3.0,94,0.00,,,0.00,weatherlink.com 1.10,2013-09-12 05:51:00,
2013-09-12 01:06:00,73.9,71.0,30.02,NE,34,0.0,1.0,91,0.00,,,0.00,weatherlink.com 1.10,2013-09-12 06:06:00,
2013-09-12 01:21:00,74.4,71.0,30.02,NE,51,0.0,3.0,90,0.00,,,0.00,weatherlink.com 1.10,2013-09-12 06:21:00,
2013-09-12 01:36:00,74.5,72.0,30.02,North,358,0.0,2.0,90,0.00,,,0.00,weatherlink.com 1.10,2013-09-12 06:36:00,
2013-09-12 01:51:00,74.2,71.0,30.02,ENE,58,1.0,3.0,90,0.00,,,0.00,weatherlink.com 1.10,2013-09-12 06:51:00,
2013-09-12 02:06:00,74.0,71.0,30.02,NE,46,0.0,2.0,91,0.00,,,0.00,weatherlink.com 1.10,2013-09-12 07:06:00,
2013-09-12 02:21:00,73.9,71.0,30.02,North,349,0.0,3.0,91,0.00,,,0.00,weatherlink.com 1.10,2013-09-12 07:21:00,
2013-09-12 02:36:00,73.5,71.0,30.02,WNW,288,0.0,2.0,91,0.00,,,0.00,weatherlink.com 1.10,2013-09-12 07:36:00,
2013-09-12 02:51:00,73.5,71.0,30.01,East,79,0.0,1.0,91,0.00,,,0.00,weatherlink.com 1.10,2013-09-12 07:51:00,
2013-09-12 03:06:00,72.6,71.0,30.01,East,93,0.0,1.0,93,0.00,,,0.00,weatherlink.com 1.10,2013-09-12 08:06:00,
2013-09-12 03:21:00,71.9,70.0,30.01,North,357,0.0,1.0,94,0.00,,,0.00,weatherlink.com 1.10,2013-09-12 08:21:00,
2013-09-12 03:36:00,71.4,70.0,30.02,North,356,0.0,0.0,94,0.00,,,0.00,weatherlink.com 1.10,2013-09-12 08:36:00,
2013-09-12 03:51:00,70.9,70.0,30.01,North,356,0.0,0.0,95,0.00,,,0.00,weatherlink.com 1.10,2013-09-12 08:51:00,
2013-09-12 04:06:00,70.5,69.0,30.01,North,357,0.0,0.0,95,0.00,,,0.00,weatherlink.com 1.10,2013-09-12 09:06:00,
2013-09-12 04:21:00,70.1,69.0,30.02,North,353,0.0,1.0,95,0.00,,,0.00,weatherlink.com 1.10,2013-09-12 09:21:00,
2013-09-12 04:36:00,69.8,69.0,30.02,North,353,0.0,0.0,96,0.00,,,0.00,weatherlink.com 1.10,2013-09-12 09:36:00,
2013-09-12 04:51:00,69.6,69.0,30.02,North,353,0.0,0.0,96,0.00,,,0.00,weatherlink.com 1.10,2013-09-12 09:51:00,
2013-09-12 05:06:00,69.3,68.0,30.02,North,354,0.0,1.0,96,0.00,,,0.00,weatherlink.com 1.10,2013-09-12 10:06:00,
2013-09-12 05:21:00,69.4,68.0,30.02,North,3,0.0,0.0,96,0.00,,,0.00,weatherlink.com 1.10,2013-09-12 10:21:00,
2013-09-12 05:36:00,69.3,68.0,30.02,North,3,0.0,0.0,96,0.00,,,0.00,weatherlink.com 1.10,2013-09-12 10:36:00,
2013-09-12 05:51:00,69.4,69.0,30.02,North,4,0.0,0.0,97,0.00,,,0.00,weatherlink.com 1.10,2013-09-12 10:51:00,
2013-09-12 06:06:00,69.2,68.0,30.03,North,4,0.0,0.0,97,0.00,,,0.00,weatherlink.com 1.10,2013-09-12 11:06:00,
2013-09-12 06:21:00,69.0,68.0,30.03,North,3,0.0,0.0,97,0.00,,,0.00,weatherlink.com 1.10,2013-09-12 11:21:00,
2013-09-12 06:36:00,68.9,68.0,30.03,North,3,0.0,0.0,97,0.00,,,0.00,weatherlink.com 1.10,2013-09-12 11:36:00,
2013-09-12 06:51:00,68.8,68.0,30.03,North,3,0.0,0.0,97,0.00,,,0.00,weatherlink.com 1.10,2013-09-12 11:51:00,
2013-09-12 07:06:00,69.2,68.0,30.03,North,4,0.0,0.0,97,0.00,,,0.00,weatherlink.com 1.10,2013-09-12 12:06:00,
2013-09-12 07:21:00,70.6,70.0,30.03,North,3,0.0,1.0,97,0.00,,,0.00,weatherlink.com 1.10,2013-09-12 12:21:00,
2013-09-12 07:36:00,71.5,70.0,30.03,North,356,0.0,0.0,96,0.00,,,0.00,weatherlink.com 1.10,2013-09-12 12:36:00,
2013-09-12 07:51:00,73.2,71.0,30.03,North,359,0.0,1.0,94,0.00,,,0.00,weatherlink.com 1.10,2013-09-12 12:51:00,
2013-09-12 08:06:00,75.7,73.0,30.03,North,352,0.0,1.0,91,0.00,,,0.00,weatherlink.com 1.10,2013-09-12 13:06:00,
2013-09-12 08:22:00,77.9,74.0,30.03,NNE,18,0.0,1.0,88,0.00,,,0.00,weatherlink.com 1.10,2013-09-12 13:22:00,
2013-09-12 08:37:00,80.5,74.0,30.04,ENE,58,2.0,2.0,81,0.00,,,0.00,weatherlink.com 1.10,2013-09-12 13:37:00,
2013-09-12 08:52:00,80.6,75.0,30.03,NNE,25,1.0,2.0,82,0.00,,,0.00,weatherlink.com 1.10,2013-09-12 13:52:00,
2013-09-12 09:07:00,81.7,75.0,30.03,East,94,1.0,3.0,80,0.00,,,0.00,weatherlink.com 1.10,2013-09-12 14:07:00,
2013-09-12 09:22:00,81.9,74.0,30.03,ESE,117,3.0,4.0,78,0.00,,,0.00,weatherlink.com 1.10,2013-09-12 14:22:00,
2013-09-12 09:37:00,83.0,75.0,30.03,East,91,0.0,2.0,77,0.00,,,0.00,weatherlink.com 1.10,2013-09-12 14:37:00,
2013-09-12 09:52:00,83.8,76.0,30.03,NNE,20,0.0,3.0,76,0.00,,,0.00,weatherlink.com 1.10,2013-09-12 14:52:00,
2013-09-12 10:07:00,84.3,74.0,30.03,East,86,0.0,4.0,72,0.00,,,0.00,weatherlink.com 1.10,2013-09-12 15:07:00,
2013-09-12 10:22:00,85.1,76.0,30.02,ESE,121,0.0,4.0,73,0.00,,,0.00,weatherlink.com 1.10,2013-09-12 15:22:00,
2013-09-12 10:37:00,85.9,74.0,30.03,NE,44,2.0,6.0,68,0.00,,,0.00,weatherlink.com 1.10,2013-09-12 15:37:00,
2013-09-12 10:52:00,85.3,74.0,30.03,NW,321,2.0,5.0,68,0.00,,,0.00,weatherlink.com 1.10,2013-09-12 15:52:00,
2013-09-12 11:07:00,85.6,74.0,30.02,NE,53,4.0,5.0,69,0.00,,,0.00,weatherlink.com 1.10,2013-09-12 16:07:00,
2013-09-12 11:22:00,86.3,75.0,30.01,WNW,282,1.0,8.0,68,0.00,,,0.00,weatherlink.com 1.10,2013-09-12 16:22:00,
2013-09-12 11:37:00,86.6,73.0,30.01,ENE,76,3.0,7.0,65,0.00,,,0.00,weatherlink.com 1.10,2013-09-12 16:37:00,
2013-09-12 11:52:00,86.9,73.0,30.00,SE,145,0.0,5.0,63,0.00,,,0.00,weatherlink.com 1.10,2013-09-12 16:52:00,
2013-09-12 12:07:00,87.7,74.0,30.00,SE,138,1.0,2.0,64,0.00,,,0.00,weatherlink.com 1.10,2013-09-12 17:07:00,
2013-09-12 12:22:00,86.8,72.0,30.00,North,6,0.0,6.0,62,0.00,,,0.00,weatherlink.com 1.10,2013-09-12 17:22:00,
2013-09-12 12:38:00,89.2,73.0,29.99,NE,51,1.0,5.0,59,0.00,,,0.00,weatherlink.com 1.10,2013-09-12 17:38:00,
2013-09-12 12:52:00,86.8,72.0,29.99,East,88,0.0,2.0,61,0.00,,,0.00,weatherlink.com 1.10,2013-09-12 17:52:00,
2013-09-12 13:07:00,88.1,70.0,29.98,NNW,335,3.0,6.0,56,0.00,,,0.00,weatherlink.com 1.10,2013-09-12 18:07:00,
2013-09-12 13:22:00,90.2,72.0,29.97,East,94,8.0,8.0,56,0.00,,,0.00,weatherlink.com 1.10,2013-09-12 18:22:00,
2013-09-12 13:37:00,89.9,72.0,29.96,SW,221,0.0,5.0,55,0.00,,,0.00,weatherlink.com 1.10,2013-09-12 18:37:00,
2013-09-12 13:52:00,89.7,70.0,29.96,ENE,61,0.0,6.0,52,0.00,,,0.00,weatherlink.com 1.10,2013-09-12 18:52:00,
2013-09-12 14:08:00,90.2,70.0,29.95,North,8,0.0,3.0,51,0.00,,,0.00,weatherlink.com 1.10,2013-09-12 19:08:00,
2013-09-12 14:23:00,90.1,70.0,29.94,NNW,329,2.0,4.0,51,0.00,,,0.00,weatherlink.com 1.10,2013-09-12 19:23:00,
2013-09-12 14:38:00,89.1,72.0,29.93,NNE,22,0.0,3.0,58,0.00,,,0.00,weatherlink.com 1.10,2013-09-12 19:38:00,
2013-09-12 14:53:00,89.8,69.0,29.93,WSW,252,0.0,1.0,50,0.00,,,0.00,weatherlink.com 1.10,2013-09-12 19:53:00,
2013-09-12 15:09:00,91.4,67.0,29.92,NNE,29,1.0,3.0,45,0.00,,,0.00,weatherlink.com 1.10,2013-09-12 20:09:00,
2013-09-12 15:23:00,92.0,68.0,29.91,ENE,70,2.0,3.0,46,0.00,,,0.00,weatherlink.com 1.10,2013-09-12 20:23:00,
2013-09-12 15:38:00,91.8,72.0,29.91,NNE,27,1.0,3.0,52,0.00,,,0.00,weatherlink.com 1.10,2013-09-12 20:38:00,
2013-09-12 16:08:00,93.6,70.0,29.90,WSW,253,0.0,3.0,46,0.00,,,0.00,weatherlink.com 1.10,2013-09-12 21:08:00,
2013-09-12 16:23:00,91.3,68.0,29.90,NNW,338,1.0,6.0,47,0.00,,,0.00,weatherlink.com 1.10,2013-09-12 21:23:00,
2013-09-12 16:38:00,90.4,70.0,29.89,North,353,0.0,4.0,52,0.00,,,0.00,weatherlink.com 1.10,2013-09-12 21:38:00,
2013-09-12 16:53:00,90.6,69.0,29.89,North,1,0.0,1.0,50,0.00,,,0.00,weatherlink.com 1.10,2013-09-12 21:53:00,
2013-09-12 17:08:00,90.6,70.0,29.89,West,267,0.0,2.0,51,0.00,,,0.00,weatherlink.com 1.10,2013-09-12 22:08:00,
2013-09-12 17:23:00,90.7,71.0,29.89,North,9,1.0,1.0,52,0.00,,,0.00,weatherlink.com 1.10,2013-09-12 22:23:00,
2013-09-12 17:38:00,89.6,70.0,29.89,NNW,343,0.0,1.0,53,0.00,,,0.00,weatherlink.com 1.10,2013-09-12 22:38:00,
2013-09-12 17:53:00,88.2,73.0,29.89,NNW,345,0.0,0.0,61,0.00,,,0.00,weatherlink.com 1.10,2013-09-12 22:53:00,
2013-09-12 18:08:00,86.4,74.0,29.89,NNW,345,0.0,0.0,66,0.00,,,0.00,weatherlink.com 1.10,2013-09-12 23:08:00,
2013-09-12 18:23:00,82.5,74.0,29.89,NNW,345,0.0,0.0,76,0.00,,,0.00,weatherlink.com 1.10,2013-09-12 23:23:00,
2013-09-12 18:38:00,80.5,74.0,29.89,NNW,345,0.0,0.0,80,0.00,,,0.00,weatherlink.com 1.10,2013-09-12 23:38:00,
2013-09-12 18:53:00,79.0,73.0,29.88,NNW,345,0.0,0.0,81,0.00,,,0.00,weatherlink.com 1.10,2013-09-12 23:53:00,
2013-09-12 19:08:00,77.4,72.0,29.89,North,1,0.0,0.0,83,0.00,,,0.00,weatherlink.com 1.10,2013-09-13 00:08:00,
2013-09-12 19:23:00,76.0,71.0,29.89,North,1,0.0,0.0,85,0.00,,,0.00,weatherlink.com 1.10,2013-09-13 00:23:00,
2013-09-12 19:38:00,75.0,71.0,29.89,North,1,0.0,0.0,87,0.00,,,0.00,weatherlink.com 1.10,2013-09-13 00:38:00,
2013-09-12 19:53:00,74.0,71.0,29.90,North,1,0.0,0.0,89,0.00,,,0.00,weatherlink.com 1.10,2013-09-13 00:53:00,
2013-09-12 20:08:00,73.4,71.0,29.90,North,1,0.0,0.0,91,0.00,,,0.00,weatherlink.com 1.10,2013-09-13 01:08:00,
2013-09-12 20:23:00,73.4,71.0,29.91,East,98,0.0,0.0,91,0.00,,,0.00,weatherlink.com 1.10,2013-09-13 01:23:00,
2013-09-12 20:38:00,73.0,71.0,29.91,East,97,0.0,0.0,92,0.00,,,0.00,weatherlink.com 1.10,2013-09-13 01:38:00,
2013-09-12 20:53:00,72.5,70.0,29.91,East,98,0.0,0.0,93,0.00,,,0.00,weatherlink.com 1.10,2013-09-13 01:53:00,
2013-09-12 21:08:00,72.1,70.0,29.91,East,98,0.0,0.0,93,0.00,,,0.00,weatherlink.com 1.10,2013-09-13 02:08:00,
2013-09-12 21:23:00,71.7,70.0,29.91,East,98,0.0,0.0,94,0.00,,,0.00,weatherlink.com 1.10,2013-09-13 02:23:00,
2013-09-12 21:38:00,71.4,70.0,29.91,East,98,0.0,0.0,94,0.00,,,0.00,weatherlink.com 1.10,2013-09-13 02:38:00,
2013-09-12 21:53:00,71.2,70.0,29.92,East,97,0.0,0.0,95,0.00,,,0.00,weatherlink.com 1.10,2013-09-13 02:53:00,
2013-09-12 22:08:00,70.6,69.0,29.92,East,98,0.0,0.0,95,0.00,,,0.00,weatherlink.com 1.10,2013-09-13 03:08:00,
2013-09-12 22:23:00,70.6,69.0,29.92,ESE,115,0.0,0.0,95,0.00,,,0.00,weatherlink.com 1.10,2013-09-13 03:23:00,
2013-09-12 22:38:00,70.3,69.0,29.92,ESE,115,0.0,0.0,95,0.00,,,0.00,weatherlink.com 1.10,2013-09-13 03:38:00,
2013-09-12 22:53:00,70.2,69.0,29.92,ESE,116,0.0,0.0,95,0.00,,,0.00,weatherlink.com 1.10,2013-09-13 03:53:00,
2013-09-12 23:08:00,70.2,69.0,29.92,ESE,115,0.0,0.0,96,0.00,,,0.00,weatherlink.com 1.10,2013-09-13 04:08:00,
2013-09-12 23:23:00,70.1,69.0,29.92,ESE,115,0.0,0.0,96,0.00,,,0.00,weatherlink.com 1.10,2013-09-13 04:23:00,
2013-09-12 23:38:00,69.7,69.0,29.92,ESE,115,0.0,0.0,96,0.00,,,0.00,weatherlink.com 1.10,2013-09-13 04:38:00,
2013-09-12 23:53:00,69.7,69.0,29.91,ENE,73,0.0,0.0,96,0.00,,,0.00,weatherlink.com 1.10,2013-09-13 04:53:00,